createdAt,value
2019-04-29T04:24:50.776Z,5.80
2019-04-29T04:27:32.508Z,5.70
2019-04-29T04:30:14.378Z,5.80
2019-04-29T04:32:56.308Z,5.70
2019-04-29T04:35:38.640Z,5.70
2019-04-29T04:38:20.656Z,5.80
2019-04-29T04:41:07.953Z,5.80
2019-04-29T04:43:50.080Z,5.90
2019-04-29T04:46:32.309Z,5.80
2019-04-29T04:49:15.986Z,5.90
2019-04-29T04:51:58.079Z,6.00
2019-04-29T04:54:40.289Z,5.90
2019-04-29T04:57:22.935Z,5.80
2019-04-29T05:00:07.521Z,5.70
2019-04-29T05:02:49.235Z,5.70
2019-04-29T05:05:30.939Z,5.90
2019-04-29T05:08:12.947Z,6.00
2019-04-29T05:10:54.792Z,6.00
2019-04-29T05:13:36.829Z,6.00
2019-04-29T05:16:18.904Z,6.00
2019-04-29T05:19:00.755Z,6.10
2019-04-29T05:21:42.415Z,6.00
2019-04-29T05:24:24.338Z,6.10
2019-04-29T05:27:07.093Z,6.20
2019-04-29T05:29:49.172Z,6.10
2019-04-29T05:32:31.498Z,6.30
2019-04-29T05:35:15.089Z,6.40
2019-04-29T05:41:07.784Z,6.60
2019-04-29T05:46:50.374Z,6.60
2019-04-29T05:55:40.236Z,6.80
2019-04-29T05:58:22.396Z,6.70
2019-04-29T06:04:03.109Z,6.80
2019-04-29T06:06:33.457Z,6.90
2019-04-29T06:09:23.161Z,6.80
2019-04-29T06:12:05.516Z,6.80
2019-04-29T06:14:35.844Z,6.90
2019-04-29T06:17:18.183Z,7.00
2019-04-29T06:20:00.121Z,7.10
2019-04-29T06:22:43.529Z,7.20
2019-04-29T06:25:25.718Z,7.40
2019-04-29T06:28:07.537Z,7.60
2019-04-29T06:30:50.253Z,7.60
2019-04-29T06:33:33.400Z,7.60
2019-04-29T06:36:15.367Z,7.80
2019-04-29T06:38:57.269Z,7.60
2019-04-29T06:41:40.562Z,7.40
2019-04-29T06:44:22.465Z,7.50
2019-04-29T06:47:04.196Z,7.60
2019-04-29T06:49:46.278Z,7.60
2019-04-29T06:52:28.361Z,7.70
2019-04-29T06:55:10.749Z,7.80
2019-04-29T06:57:52.621Z,8.10
2019-04-29T07:00:34.917Z,8.20
2019-04-29T07:03:20.837Z,8.40
2019-04-29T07:06:00.890Z,8.50
2019-04-29T07:08:43.125Z,8.20
2019-04-29T07:11:25.246Z,8.20
2019-04-29T07:14:07.478Z,8.40
2019-04-29T07:16:50.497Z,8.40
2019-04-29T07:19:32.469Z,8.50
2019-04-29T07:22:14.618Z,8.60
2019-04-29T07:24:57.124Z,8.70
2019-04-29T07:27:43.107Z,8.90
2019-04-29T07:30:22.605Z,9.30
2019-04-29T07:33:05.616Z,9.70
2019-04-29T07:35:49.591Z,9.70
2019-04-29T07:38:41.301Z,9.80
2019-04-29T07:41:18.951Z,10.00
2019-04-29T07:43:59.316Z,10.10
2019-04-29T07:49:40.819Z,10.30
2019-04-29T07:52:23.007Z,10.30
2019-04-29T07:55:05.387Z,10.10
2019-04-29T07:57:47.792Z,10.20
2019-04-29T08:00:31.208Z,10.60
2019-04-29T08:03:13.400Z,10.40
2019-04-29T08:05:55.375Z,10.80
2019-04-29T08:08:37.650Z,10.70
2019-04-29T08:11:19.556Z,10.80
2019-04-29T08:14:01.567Z,11.00
2019-04-29T08:16:43.440Z,11.10
2019-04-29T08:19:29.481Z,11.30
2019-04-29T08:22:09.112Z,11.30
2019-04-29T08:24:52.216Z,11.20
2019-04-29T08:27:40.536Z,11.50
2019-04-29T08:30:18.354Z,11.60
2019-04-29T08:33:00.242Z,11.90
2019-04-29T08:35:42.205Z,11.90
2019-04-29T08:38:24.141Z,11.60
2019-04-29T08:40:54.524Z,11.80
2019-04-29T08:44:15.775Z,11.90
2019-04-29T08:46:56.406Z,12.10
2019-04-29T08:49:36.852Z,12.40
2019-04-29T08:52:19.205Z,12.70
2019-04-29T08:55:00.968Z,12.80
2019-04-29T08:57:43.147Z,12.70
2019-04-29T09:00:25.386Z,12.80
2019-04-29T09:03:07.250Z,12.90
2019-04-29T09:06:04.320Z,13.00
2019-04-29T09:08:34.565Z,12.70
2019-04-29T09:11:16.629Z,12.90
2019-04-29T09:13:58.822Z,13.00
2019-04-29T09:16:41.305Z,13.30
2019-04-29T09:19:23.578Z,13.40
2019-04-29T09:22:07.532Z,13.60
2019-04-29T09:25:09.501Z,13.90
2019-04-29T09:27:52.460Z,14.00
2019-04-29T09:30:36.922Z,14.30
2019-04-29T09:33:18.956Z,14.60
2019-04-29T09:36:01.144Z,14.80
2019-04-29T09:38:43.598Z,15.00
2019-04-29T09:44:45.208Z,15.30
2019-04-29T09:47:30.492Z,15.40
2019-04-29T09:50:13.100Z,15.30
2019-04-29T09:52:55.290Z,15.40
2019-04-29T09:55:40.066Z,15.50
2019-04-29T09:58:21.151Z,15.50
2019-04-29T10:01:21.895Z,15.70
2019-04-29T10:07:10.754Z,16.00
2019-04-29T10:09:57.286Z,15.90
2019-04-29T10:12:37.049Z,15.90
2019-04-29T10:15:21.980Z,16.00
2019-04-29T10:21:10.679Z,16.00
2019-04-29T10:23:52.603Z,16.00
2019-04-29T10:26:35.118Z,16.10
2019-04-29T10:29:20.311Z,16.00
2019-04-29T10:31:50.775Z,16.10
2019-04-29T10:34:33.140Z,16.20
2019-04-29T10:37:16.059Z,16.30
2019-04-29T10:40:17.117Z,16.50
2019-04-29T10:43:18.172Z,16.40
2019-04-29T10:46:21.658Z,16.50
2019-04-29T10:52:04.522Z,16.70
2019-04-29T10:54:46.628Z,16.70
2019-04-29T10:57:29.377Z,16.70
2019-04-29T11:03:00.128Z,16.90
2019-04-29T11:05:32.084Z,16.90
2019-04-29T11:08:06.477Z,16.90
2019-04-29T11:10:36.758Z,16.80
2019-04-29T11:13:19.169Z,16.90
2019-04-29T11:15:51.224Z,16.80
2019-04-29T11:18:27.402Z,17.00
2019-04-29T11:20:57.670Z,16.80
2019-04-29T11:23:36.704Z,16.90
2019-04-29T11:26:25.995Z,17.00
2019-04-29T11:28:58.251Z,17.30
2019-04-29T11:31:28.680Z,17.30
2019-04-29T11:34:20.946Z,17.30
2019-04-29T11:36:52.273Z,17.30
2019-04-29T11:39:34.363Z,17.10
2019-04-29T11:42:07.871Z,17.10
2019-04-29T11:44:38.185Z,17.10
2019-04-29T11:47:25.111Z,17.10
2019-04-29T11:53:08.500Z,17.30
2019-04-29T11:55:52.513Z,17.60
2019-04-29T12:01:50.835Z,17.50
2019-04-29T12:04:41.985Z,17.50
2019-04-29T12:07:22.633Z,17.30
2019-04-29T12:10:06.662Z,17.30
2019-04-29T12:12:49.095Z,17.50
2019-04-29T12:18:37.970Z,17.60
2019-04-29T12:21:25.647Z,18.20
2019-04-29T12:24:09.045Z,18.40
2019-04-29T12:26:51.049Z,18.80
2019-04-29T12:29:32.894Z,19.20
2019-04-29T12:35:51.579Z,20.10
2019-04-29T12:38:51.361Z,19.80
2019-04-29T12:41:52.588Z,19.70
2019-04-29T12:44:44.481Z,19.70
2019-04-29T12:47:36.336Z,19.60
2019-04-29T12:50:21.691Z,19.80
2019-04-29T12:53:02.624Z,19.30
2019-04-29T12:55:50.276Z,19.00
2019-04-29T12:58:29.455Z,18.70
2019-04-29T13:04:37.856Z,18.40
2019-04-29T13:07:38.891Z,18.30
2019-04-29T13:10:42.517Z,18.10
2019-04-29T13:13:24.571Z,17.80
2019-04-29T13:16:25.545Z,17.60
2019-04-29T13:19:32.074Z,17.60
2019-04-29T13:22:15.474Z,17.70
2019-04-29T13:24:57.277Z,17.80
2019-04-29T13:27:39.285Z,17.80
2019-04-29T13:30:21.374Z,17.70
2019-04-29T13:33:05.943Z,17.70
2019-04-29T13:35:35.519Z,17.80
2019-04-29T13:38:24.892Z,17.90
2019-04-29T13:41:13.634Z,17.70
2019-04-29T13:43:52.145Z,17.60
2019-04-29T13:46:53.980Z,17.40
2019-04-29T13:49:48.724Z,17.50
2019-04-29T13:52:32.952Z,17.40
2019-04-29T13:55:17.635Z,17.10
2019-04-29T13:57:58.823Z,16.90
2019-04-29T14:01:05.997Z,16.80
2019-04-29T14:03:59.354Z,16.60
2019-04-29T14:06:56.133Z,16.70
2019-04-29T14:09:26.966Z,16.60
2019-04-29T14:12:46.403Z,16.40
2019-04-29T14:14:58.449Z,16.50
2019-04-29T14:17:31.387Z,16.30
2019-04-29T14:19:58.470Z,16.40
2019-04-29T14:22:28.969Z,16.40
2019-04-29T14:25:18.324Z,16.40
2019-04-29T14:27:48.704Z,16.40
2019-04-29T14:30:20.899Z,16.50
2019-04-29T14:32:54.983Z,16.40
2019-04-29T14:35:48.178Z,16.20
2019-04-29T14:38:23.888Z,16.10
2019-04-29T14:44:09.156Z,15.90
2019-04-29T14:49:58.679Z,15.70
2019-04-29T14:52:44.740Z,15.50
2019-04-29T14:55:25.139Z,15.60
2019-04-29T14:57:54.852Z,15.40
2019-04-29T15:03:59.165Z,15.20
2019-04-29T15:06:42.226Z,15.30
2019-04-29T15:09:24.507Z,15.00
2019-04-29T15:15:34.222Z,15.00
2019-04-29T15:18:47.690Z,15.10
2019-04-29T15:21:51.440Z,15.10
2019-04-29T15:24:34.419Z,15.10
2019-04-29T15:27:20.100Z,15.00
2019-04-29T15:30:03.647Z,15.20
2019-04-29T15:32:47.475Z,15.20
2019-04-29T15:35:31.200Z,15.00
2019-04-29T15:38:13.544Z,14.90
2019-04-29T15:40:55.588Z,14.90
2019-04-29T15:43:47.215Z,15.00
2019-04-29T15:46:23.654Z,15.00
2019-04-29T15:49:05.684Z,15.00
2019-04-29T15:51:49.342Z,15.20
2019-04-29T15:54:30.094Z,15.40
2019-04-29T15:57:15.474Z,15.30
2019-04-29T15:59:59.762Z,15.40
2019-04-29T16:02:42.945Z,15.50
2019-04-29T16:06:04.407Z,15.50
2019-04-29T16:08:45.668Z,15.50
2019-04-29T16:11:46.425Z,15.60
2019-04-29T16:14:29.306Z,15.50
2019-04-29T16:17:11.592Z,15.40
2019-04-29T16:19:53.433Z,15.40
2019-04-29T16:22:39.036Z,15.50
2019-04-29T16:25:19.105Z,15.50
2019-04-29T16:28:00.769Z,15.50
2019-04-29T16:30:42.941Z,15.30
2019-04-29T16:33:15.438Z,15.30
2019-04-29T16:35:51.555Z,15.20
2019-04-29T16:38:46.298Z,15.10
2019-04-29T16:41:51.110Z,15.10
2019-04-29T16:44:35.952Z,14.90
2019-04-29T16:47:16.919Z,14.80
2019-04-29T16:50:04.849Z,14.70
2019-04-29T16:52:44.588Z,14.60
2019-04-29T16:55:27.182Z,14.50
2019-04-29T16:58:17.806Z,14.50
2019-04-29T17:00:54.872Z,14.30
2019-04-29T17:03:36.963Z,14.30
2019-04-29T17:06:19.083Z,14.30
2019-04-29T17:09:23.139Z,14.30
2019-04-29T17:12:11.535Z,14.20
2019-04-29T17:15:04.228Z,14.20
2019-04-29T17:17:36.843Z,14.20
2019-04-29T17:20:18.898Z,14.20
2019-04-29T17:23:02.882Z,14.20
2019-04-29T17:25:44.140Z,14.20
2019-04-29T17:32:00.597Z,14.20
2019-04-29T17:38:10.963Z,14.00
2019-04-29T17:40:53.364Z,14.00
2019-04-29T17:43:43.251Z,14.00
2019-04-29T17:52:37.493Z,14.00
2019-04-29T17:55:45.344Z,13.90
2019-04-29T17:58:43.897Z,13.90
2019-04-29T18:01:52.368Z,13.90
2019-04-29T18:04:57.231Z,13.90
2019-04-29T18:07:51.994Z,13.90
2019-04-29T18:10:46.392Z,13.90
2019-04-29T18:13:31.205Z,13.90
2019-04-29T18:16:18.929Z,13.90
2019-04-29T18:25:39.157Z,14.00
2019-04-29T18:28:21.627Z,14.00
2019-04-29T18:31:05.926Z,13.90
2019-04-29T18:33:48.041Z,13.90
2019-04-29T18:36:32.306Z,13.80
2019-04-29T18:42:03.084Z,13.70
2019-04-29T18:44:55.093Z,13.50
2019-04-29T18:47:27.579Z,13.60
2019-04-29T18:50:10.411Z,13.80
2019-04-29T18:52:53.453Z,13.60
2019-04-29T18:55:37.415Z,13.60
2019-04-29T18:58:20.208Z,13.50
2019-04-29T19:01:05.670Z,13.50
2019-04-29T19:04:10.153Z,13.50
2019-04-29T19:07:02.078Z,13.30
2019-04-29T19:14:45.327Z,13.60
2019-04-29T19:17:00.362Z,13.60
2019-04-29T19:19:30.695Z,13.60
2019-04-29T19:28:14.939Z,13.80
2019-04-29T19:30:56.067Z,13.60
2019-04-29T19:33:39.355Z,13.50
2019-04-29T19:36:23.017Z,13.60
2019-04-29T19:39:10.267Z,13.40
2019-04-29T19:42:29.078Z,13.30
2019-04-29T19:44:55.463Z,13.30
2019-04-29T19:47:28.055Z,13.40
2019-04-29T19:50:21.714Z,13.50
2019-04-29T19:52:52.311Z,13.40
2019-04-29T19:56:20.916Z,13.50
2019-04-29T19:58:57.324Z,13.50
2019-04-29T20:01:38.138Z,13.50
2019-04-29T20:04:39.733Z,13.50
2019-04-29T20:07:24.130Z,13.50
2019-04-29T20:10:10.222Z,13.40
2019-04-29T20:12:53.336Z,13.40
2019-04-29T20:15:39.138Z,13.40
2019-04-29T20:18:41.314Z,13.40
2019-04-29T20:21:29.328Z,13.40
2019-04-29T20:24:15.353Z,13.40
2019-04-29T20:26:54.389Z,13.40
2019-04-29T20:29:38.629Z,13.40
2019-04-29T20:32:30.189Z,13.30
2019-04-29T20:35:08.890Z,13.30
2019-04-29T20:37:55.690Z,13.40
2019-04-29T20:40:42.844Z,13.40
2019-04-29T20:44:16.316Z,13.40
2019-04-29T20:47:13.914Z,13.50
2019-04-29T20:49:30.888Z,13.40
2019-04-29T20:52:40.839Z,13.40
2019-04-29T20:55:27.024Z,13.50
2019-04-29T20:57:57.591Z,13.50
2019-04-29T21:00:29.605Z,13.50
2019-04-29T21:03:04.288Z,13.50
2019-04-29T21:05:45.244Z,13.50
2019-04-29T21:08:14.294Z,13.40
2019-04-29T21:10:48.232Z,13.40
2019-04-29T21:13:43.382Z,13.30
2019-04-29T21:16:22.867Z,13.40
2019-04-29T21:19:08.774Z,13.30
2019-04-29T21:21:50.754Z,13.40
2019-04-29T21:24:35.172Z,13.40
2019-04-29T21:27:22.150Z,13.30
2019-04-29T21:30:00.661Z,13.30
2019-04-29T21:32:42.905Z,13.30
2019-04-29T21:35:45.446Z,13.30
2019-04-29T21:44:42.502Z,13.20
2019-04-29T21:47:26.826Z,13.20
2019-04-29T21:50:08.235Z,13.20
2019-04-29T21:52:55.286Z,13.10
